Time;durP1;ratioP1;P1;durP2;ratioP2;P2;SDS_P1;SDS_P2;PMS_P1;PMS_P2;Temp;Humidity;BMP_temperature;BMP_pressure;BME280_temperature;BME280_humidity;BME280_pressure;Samples;Min_cycle;Max_cycle;Signal;HPM_P1;HPM_P2
2022/08/12 05:01:31;;;;;;;;;;;17.30;76.50;;;;;;5857402;23;21189;-76
2022/08/12 05:03:57;;;;;;;;;;;17.30;77.00;;;;;;4930510;29;19914;-75
2022/08/12 05:06:24;;;;;;;;;;;17.40;77.30;;;;;;4947499;29;19907;-77
2022/08/12 05:08:51;;;;;;;;;;;17.30;77.40;;;;;;4946609;29;19927;-78
2022/08/12 05:11:20;;;;;;;;;;;17.30;77.80;;;;;;4930243;29;19911;-77
2022/08/12 05:13:46;;;;;;;;;;;17.40;78.10;;;;;;4946952;29;19910;-75
2022/08/12 05:16:12;;;;;;;;;;;17.50;78.40;;;;;;4947726;29;19930;-76
2022/08/12 05:18:38;;;;;;;;;;;17.40;77.70;;;;;;4929723;29;19966;-75
2022/08/12 05:21:05;;;;;;;;;;;17.50;77.90;;;;;;4947098;29;19907;-76
2022/08/12 05:23:31;;;;;;;;;;;17.60;77.60;;;;;;4946124;29;19934;-76
2022/08/12 05:25:57;;;;;;;;;;;17.60;77.50;;;;;;4947062;29;20169;-76
2022/08/12 05:28:23;;;;;;;;;;;17.70;76.80;;;;;;4946828;29;19918;-76
2022/08/12 05:30:49;;;;;;;;;;;17.70;76.20;;;;;;4946396;29;20232;-76
2022/08/12 05:33:15;;;;;;;;;;;17.80;76.50;;;;;;4929983;29;19978;-76
2022/08/12 05:35:42;;;;;;;;;;;17.90;76.00;;;;;;4946122;29;19910;-76
2022/08/12 05:40:52;;;;;;;;;;;17.90;75.50;;;;;;4946571;29;19942;-77
2022/08/12 05:43:18;;;;;;;;;;;18.00;75.40;;;;;;4926528;29;19915;-76
2022/08/12 05:45:44;;;;;;;;;;;18.10;75.30;;;;;;4922759;29;19915;-76
2022/08/12 05:48:11;;;;;;;;;;;18.10;75.10;;;;;;4911858;29;19982;-76
2022/08/12 05:50:37;;;;;;;;;;;18.10;74.90;;;;;;4943643;29;19990;-77
2022/08/12 05:53:04;;;;;;;;;;;18.20;74.80;;;;;;4928691;29;20169;-76
2022/08/12 05:55:30;;;;;;;;;;;18.30;74.70;;;;;;4928414;29;19913;-76
2022/08/12 05:57:56;;;;;;;;;;;18.40;74.70;;;;;;4945057;29;19919;-76
2022/08/12 06:00:24;;;;;;;;;;;18.50;74.20;;;;;;4945311;29;20046;-77
2022/08/12 06:02:59;;;;;;;;;;;18.50;73.80;;;;;;4956351;29;19919;-76
2022/08/12 06:05:35;;;;;;;;;;;18.60;73.50;;;;;;4964398;29;20168;-75
2022/08/12 06:08:01;;;;;;;;;;;18.70;73.10;;;;;;4964383;29;19981;-76
2022/08/12 06:10:27;;;;;;;;;;;18.80;73.00;;;;;;4951809;29;20215;-75
2022/08/12 06:12:55;;;;;;;;;;;18.90;72.80;;;;;;4944743;29;20167;-78
2022/08/12 06:15:21;;;;;;;;;;;19.10;72.50;;;;;;4944988;29;19918;-77
2022/08/12 06:17:47;;;;;;;;;;;19.20;72.00;;;;;;4944016;29;19954;-76
2022/08/12 06:20:14;;;;;;;;;;;19.30;71.50;;;;;;4958778;29;19958;-76
2022/08/12 06:22:40;;;;;;;;;;;19.40;71.10;;;;;;4944479;29;20209;-76
2022/08/12 06:25:05;;;;;;;;;;;19.50;70.70;;;;;;4944819;29;19911;-75
2022/08/12 06:27:33;;;;;;;;;;;19.70;70.70;;;;;;4927931;29;20133;-76
2022/08/12 06:30:01;;;;;;;;;;;19.80;70.50;;;;;;4944079;29;19989;-76
2022/08/12 06:32:27;;;;;;;;;;;20.00;69.80;;;;;;4928782;29;19997;-76
2022/08/12 06:34:55;;;;;;;;;;;20.10;69.60;;;;;;4943544;29;20232;-76
2022/08/12 06:37:21;;;;;;;;;;;20.10;69.40;;;;;;4943327;29;19910;-75
2022/08/12 06:39:46;;;;;;;;;;;20.30;69.30;;;;;;4945312;29;20272;-76
2022/08/12 06:44:56;;;;;;;;;;;20.50;68.20;;;;;;4943961;29;19911;-75
2022/08/12 06:47:22;;;;;;;;;;;20.70;67.50;;;;;;4944593;29;19918;-75
2022/08/12 06:49:48;;;;;;;;;;;20.80;67.20;;;;;;4943726;29;19915;-77
2022/08/12 06:52:16;;;;;;;;;;;20.90;66.90;;;;;;4944106;29;19910;-76
2022/08/12 06:54:44;;;;;;;;;;;20.90;66.60;;;;;;4926783;29;20152;-76
2022/08/12 06:57:10;;;;;;;;;;;21.10;66.70;;;;;;4944472;29;20176;-77
2022/08/12 06:59:37;;;;;;;;;;;21.20;66.20;;;;;;4943817;29;19910;-76
2022/08/12 07:02:03;;;;;;;;;;;21.40;65.50;;;;;;4943879;29;19918;-76
2022/08/12 07:04:28;;;;;;;;;;;21.50;65.30;;;;;;4927509;29;19911;-75
2022/08/12 07:06:54;;;;;;;;;;;21.70;64.60;;;;;;4910971;29;20293;-75
2022/08/12 07:09:20;;;;;;;;;;;21.80;64.00;;;;;;4947085;29;19926;-76
2022/08/12 07:11:46;;;;;;;;;;;21.90;64.60;;;;;;4962845;29;19907;-74
2022/08/12 07:14:11;;;;;;;;;;;22.10;63.70;;;;;;4946069;29;19914;-75
2022/08/12 07:16:52;;;;;;;;;;;22.20;63.30;;;;;;4956198;29;19950;-77
2022/08/12 07:19:19;;;;;;;;;;;22.30;62.70;;;;;;4950657;29;19914;-76
2022/08/12 07:21:45;;;;;;;;;;;22.50;62.50;;;;;;4962310;29;20200;-76
2022/08/12 07:24:11;;;;;;;;;;;22.60;62.00;;;;;;4961663;29;19914;-75
2022/08/12 07:26:40;;;;;;;;;;;22.80;61.60;;;;;;4943167;29;19911;-76
2022/08/12 07:29:11;;;;;;;;;;;22.90;61.50;;;;;;4941081;29;19923;-75
2022/08/12 07:31:37;;;;;;;;;;;23.00;61.30;;;;;;4943026;29;20201;-75
2022/08/12 07:34:04;;;;;;;;;;;23.10;60.90;;;;;;4943874;29;19918;-75
2022/08/12 07:36:29;;;;;;;;;;;23.10;60.70;;;;;;4943786;29;20148;-75
2022/08/12 07:38:55;;;;;;;;;;;23.20;60.60;;;;;;4943276;29;19923;-76
2022/08/12 07:41:25;;;;;;;;;;;23.30;60.10;;;;;;4943545;29;19954;-76
2022/08/12 07:43:52;;;;;;;;;;;23.40;59.90;;;;;;4943275;29;19911;-77
2022/08/12 07:46:20;;;;;;;;;;;23.50;59.90;;;;;;4945327;29;19911;-74
2022/08/12 07:48:50;;;;;;;;;;;23.70;59.40;;;;;;4946950;29;19915;-76
2022/08/12 07:51:17;;;;;;;;;;;23.70;59.10;;;;;;4947676;29;19918;-76
2022/08/12 07:53:43;;;;;;;;;;;23.90;58.90;;;;;;4945989;29;19977;-77
2022/08/12 07:56:09;;;;;;;;;;;24.00;59.00;;;;;;4947641;29;19918;-76
2022/08/12 07:58:39;;;;;;;;;;;24.10;58.40;;;;;;4947185;29;19917;-77
2022/08/12 08:01:05;;;;;;;;;;;24.10;57.90;;;;;;4947476;29;19911;-77
2022/08/12 08:03:31;;;;;;;;;;;24.20;58.20;;;;;;4964380;29;19925;-76
2022/08/12 08:05:57;;;;;;;;;;;24.30;57.60;;;;;;4966061;29;19942;-75
2022/08/12 08:08:24;;;;;;;;;;;24.40;57.60;;;;;;4966220;29;19929;-76
2022/08/12 08:10:51;;;;;;;;;;;24.40;57.30;;;;;;4965810;29;19910;-76
2022/08/12 08:13:17;;;;;;;;;;;24.40;57.10;;;;;;4966519;29;20222;-76
2022/08/12 08:15:45;;;;;;;;;;;24.50;57.30;;;;;;4965758;29;19950;-76
2022/08/12 08:18:11;;;;;;;;;;;24.60;57.10;;;;;;4966126;29;19958;-76
2022/08/12 08:20:40;;;;;;;;;;;24.70;57.40;;;;;;4948319;29;19910;-76
2022/08/12 08:23:09;;;;;;;;;;;24.80;57.30;;;;;;4966530;29;19910;-76
2022/08/12 08:25:37;;;;;;;;;;;25.00;56.90;;;;;;4966453;29;19917;-75
2022/08/12 08:28:04;;;;;;;;;;;25.10;57.30;;;;;;4966277;29;20088;-76
2022/08/12 08:30:31;;;;;;;;;;;25.10;56.30;;;;;;4960318;29;19915;-75
2022/08/12 08:32:57;;;;;;;;;;;25.20;56.40;;;;;;4929568;29;20242;-76
2022/08/12 08:35:23;;;;;;;;;;;25.30;56.00;;;;;;4946920;29;19943;-75
2022/08/12 08:37:49;;;;;;;;;;;25.40;56.20;;;;;;4946256;29;19942;-75
2022/08/12 08:43:00;;;;;;;;;;;25.40;55.70;;;;;;4945963;29;20179;-77
2022/08/12 08:45:27;;;;;;;;;;;25.50;54.90;;;;;;4954570;29;19959;-75
2022/08/12 08:47:53;;;;;;;;;;;25.60;54.80;;;;;;4970845;29;19949;-74
2022/08/12 08:50:19;;;;;;;;;;;25.70;54.50;;;;;;4969256;29;20091;-77
2022/08/12 08:52:45;;;;;;;;;;;25.70;54.80;;;;;;4968560;29;19917;-74
2022/08/12 08:55:15;;;;;;;;;;;25.80;54.20;;;;;;4949420;29;19946;-76
2022/08/12 08:57:46;;;;;;;;;;;25.90;53.10;;;;;;4964992;28;19922;-76
2022/08/12 09:00:12;;;;;;;;;;;25.90;52.90;;;;;;4965734;29;19926;-76
2022/08/12 09:02:38;;;;;;;;;;;25.90;52.50;;;;;;4965123;29;19918;-75
2022/08/12 09:05:04;;;;;;;;;;;25.90;52.60;;;;;;4965384;29;19958;-76
2022/08/12 09:07:30;;;;;;;;;;;25.90;52.20;;;;;;4965223;29;19967;-75
2022/08/12 09:09:56;;;;;;;;;;;26.10;52.60;;;;;;4964680;29;19922;-77
2022/08/12 09:15:07;;;;;;;;;;;26.00;52.50;;;;;;4965636;29;19911;-74
2022/08/12 09:17:33;;;;;;;;;;;26.10;52.50;;;;;;4965175;29;19917;-75
2022/08/12 09:19:59;;;;;;;;;;;26.10;52.20;;;;;;4964462;29;19922;-77
2022/08/12 09:22:24;;;;;;;;;;;26.30;52.40;;;;;;4965313;29;20203;-76
2022/08/12 09:24:51;;;;;;;;;;;26.40;50.90;;;;;;4947564;29;20003;-77
2022/08/12 09:27:17;;;;;;;;;;;26.40;50.30;;;;;;4965217;29;19910;-75
2022/08/12 09:29:44;;;;;;;;;;;26.50;50.30;;;;;;4964528;29;19942;-76
2022/08/12 09:32:10;;;;;;;;;;;26.60;49.70;;;;;;4964906;29;19918;-76
2022/08/12 09:34:36;;;;;;;;;;;26.40;50.30;;;;;;4964431;28;20083;-77
2022/08/12 09:37:02;;;;;;;;;;;26.60;50.60;;;;;;4980985;28;20073;-76
2022/08/12 09:39:28;;;;;;;;;;;26.70;50.30;;;;;;4965684;29;20134;-76
2022/08/12 09:47:25;;;;;;;;;;;26.70;49.30;;;;;;4945880;29;19917;-76
2022/08/12 09:49:52;;;;;;;;;;;26.80;49.90;;;;;;4927999;29;20124;-76
2022/08/12 09:52:18;;;;;;;;;;;26.70;49.70;;;;;;4945676;29;19942;-75
2022/08/12 09:54:43;;;;;;;;;;;26.90;50.00;;;;;;4944980;29;19930;-75
2022/08/12 09:57:10;;;;;;;;;;;27.00;50.00;;;;;;4945245;29;19911;-74
2022/08/12 09:59:36;;;;;;;;;;;27.20;50.10;;;;;;4928621;29;19914;-76
2022/08/12 10:02:02;;;;;;;;;;;27.20;49.90;;;;;;4944150;29;19978;-75
2022/08/12 10:04:28;;;;;;;;;;;27.30;49.90;;;;;;4945063;29;19911;-74
2022/08/12 10:06:54;;;;;;;;;;;27.40;49.80;;;;;;4945084;29;20093;-75
2022/08/12 10:09:19;;;;;;;;;;;27.50;49.50;;;;;;4927573;29;19919;-76
2022/08/12 10:14:29;;;;;;;;;;;27.60;49.30;;;;;;4945115;29;19977;-76
2022/08/12 10:16:55;;;;;;;;;;;27.60;49.20;;;;;;4927723;29;20193;-76
2022/08/12 10:19:21;;;;;;;;;;;27.60;49.10;;;;;;4962298;29;19910;-75
2022/08/12 10:21:47;;;;;;;;;;;27.80;49.00;;;;;;4963734;29;19950;-75
2022/08/12 10:24:17;;;;;;;;;;;28.00;49.10;;;;;;4964170;29;20155;-76
2022/08/12 10:29:46;;;;;;;;;;;28.00;49.00;;;;;;4953719;29;19966;-76
2022/08/12 10:32:16;;;;;;;;;;;28.10;49.30;;;;;;4946910;29;19933;-76
2022/08/12 10:34:45;;;;;;;;;;;28.20;49.30;;;;;;4964133;29;19910;-76
2022/08/12 10:37:10;;;;;;;;;;;28.10;49.50;;;;;;4963784;29;19922;-77
2022/08/12 10:39:38;;;;;;;;;;;28.00;49.00;;;;;;4963634;29;20128;-76
2022/08/12 10:44:59;;;;;;;;;;;28.10;49.30;;;;;;4963480;29;19917;-79
2022/08/12 10:47:27;;;;;;;;;;;28.30;48.80;;;;;;4963928;29;19978;-77
2022/08/12 10:49:53;;;;;;;;;;;28.40;48.60;;;;;;4963197;29;20100;-78
2022/08/12 10:52:23;;;;;;;;;;;28.50;48.50;;;;;;4946487;29;19917;-77
2022/08/12 10:54:49;;;;;;;;;;;28.50;48.10;;;;;;4945852;29;19911;-77
2022/08/12 10:57:16;;;;;;;;;;;28.60;48.20;;;;;;4963705;29;19910;-77
2022/08/12 10:59:41;;;;;;;;;;;28.80;48.00;;;;;;4946656;29;19917;-76
2022/08/12 11:02:12;;;;;;;;;;;29.10;47.70;;;;;;4943057;29;19919;-77
2022/08/12 11:04:39;;;;;;;;;;;29.10;47.20;;;;;;4944289;29;19910;-77
2022/08/12 11:07:05;;;;;;;;;;;28.90;47.20;;;;;;4943876;29;19917;-78
2022/08/12 11:09:36;;;;;;;;;;;28.90;47.20;;;;;;4944038;29;19919;-79
2022/08/12 11:12:05;;;;;;;;;;;28.80;47.00;;;;;;4943610;29;20165;-77
2022/08/12 11:14:34;;;;;;;;;;;29.10;47.50;;;;;;4944042;29;19911;-77
2022/08/12 11:17:02;;;;;;;;;;;29.40;47.00;;;;;;4943732;29;19915;-76
2022/08/12 11:19:28;;;;;;;;;;;29.50;46.30;;;;;;4943117;29;19922;-76
2022/08/12 11:21:54;;;;;;;;;;;29.70;46.10;;;;;;4943553;29;20156;-76
2022/08/12 11:24:20;;;;;;;;;;;29.90;46.90;;;;;;4944724;29;20209;-76
2022/08/12 11:26:48;;;;;;;;;;;30.00;46.10;;;;;;4940106;29;19917;-76
2022/08/12 11:29:32;;;;;;;;;;;30.20;45.60;;;;;;4928665;29;20010;-75
2022/08/12 11:31:57;;;;;;;;;;;30.50;44.70;;;;;;4944275;29;19966;-75
2022/08/12 11:34:23;;;;;;;;;;;30.70;44.40;;;;;;4943723;29;20252;-76
2022/08/12 11:36:56;;;;;;;;;;;31.10;43.90;;;;;;4944115;29;19911;-76
2022/08/12 11:39:22;;;;;;;;;;;31.60;43.90;;;;;;4943038;29;19946;-75
2022/08/12 11:41:48;;;;;;;;;;;32.20;43.60;;;;;;4940484;29;19919;-76
2022/08/12 11:44:14;;;;;;;;;;;33.10;42.60;;;;;;4930107;29;19933;-77
2022/08/12 11:46:40;;;;;;;;;;;33.60;41.90;;;;;;4945146;29;19974;-76
2022/08/12 11:49:07;;;;;;;;;;;34.40;41.50;;;;;;4942157;29;19925;-76
2022/08/12 11:51:33;;;;;;;;;;;34.80;41.20;;;;;;4943698;29;19978;-77
2022/08/12 11:53:59;;;;;;;;;;;35.60;40.90;;;;;;4941958;29;19955;-76
2022/08/12 11:56:24;;;;;;;;;;;36.50;39.80;;;;;;4944466;29;19910;-76
2022/08/12 11:58:50;;;;;;;;;;;37.10;39.30;;;;;;4942344;29;19921;-74
2022/08/12 12:01:19;;;;;;;;;;;37.50;39.70;;;;;;4941723;29;19978;-85
2022/08/12 12:03:44;;;;;;;;;;;37.70;38.80;;;;;;4952742;29;19918;-76
2022/08/12 12:06:10;;;;;;;;;;;37.70;38.70;;;;;;4958227;29;20014;-83
2022/08/12 12:08:39;;;;;;;;;;;38.00;38.20;;;;;;4941495;29;19919;-80
2022/08/12 12:11:08;;;;;;;;;;;38.20;38.40;;;;;;4954338;29;19917;-80
2022/08/12 12:13:33;;;;;;;;;;;39.50;38.00;;;;;;4947244;29;19934;-81
2022/08/12 12:15:59;;;;;;;;;;;40.10;37.60;;;;;;4929970;29;19919;-84
2022/08/12 12:18:26;;;;;;;;;;;40.20;37.10;;;;;;4969104;28;19913;-75
2022/08/12 12:20:56;;;;;;;;;;;40.10;37.10;;;;;;4962243;29;19926;-76
2022/08/12 12:23:22;;;;;;;;;;;40.40;36.90;;;;;;4960799;29;19925;-76
2022/08/12 12:25:47;;;;;;;;;;;39.60;36.90;;;;;;4961016;29;19911;-75
2022/08/12 12:28:13;;;;;;;;;;;40.00;37.10;;;;;;4945101;29;19950;-75
2022/08/12 12:30:39;;;;;;;;;;;40.90;36.50;;;;;;4962119;28;19973;-74
2022/08/12 12:33:06;;;;;;;;;;;40.90;36.30;;;;;;4965344;29;20120;-76
2022/08/12 12:35:32;;;;;;;;;;;42.10;36.20;;;;;;4965422;29;19933;-75
2022/08/12 12:37:58;;;;;;;;;;;42.70;35.80;;;;;;4947931;29;19946;-78
2022/08/12 12:40:25;;;;;;;;;;;41.60;36.10;;;;;;4966101;29;19922;-76
2022/08/12 12:42:51;;;;;;;;;;;39.70;36.90;;;;;;4965383;29;20192;-77
2022/08/12 12:45:17;;;;;;;;;;;37.80;38.30;;;;;;4966111;29;19934;-77
2022/08/12 12:47:58;;;;;;;;;;;36.80;38.80;;;;;;4948852;29;19918;-76
2022/08/12 12:50:28;;;;;;;;;;;35.90;39.80;;;;;;4965755;29;20002;-76
2022/08/12 12:52:54;;;;;;;;;;;36.20;39.70;;;;;;4964632;29;19949;-77
2022/08/12 12:55:20;;;;;;;;;;;35.90;39.50;;;;;;4965249;29;19910;-77
2022/08/12 12:57:46;;;;;;;;;;;36.20;40.10;;;;;;4947940;29;19907;-77
2022/08/12 13:00:16;;;;;;;;;;;38.30;39.10;;;;;;4948545;29;19919;-75
2022/08/12 13:02:54;;;;;;;;;;;40.60;37.80;;;;;;4944794;29;19919;-77
2022/08/12 13:05:30;;;;;;;;;;;40.90;37.10;;;;;;4946354;29;19917;-77
2022/08/12 13:07:57;;;;;;;;;;;40.60;37.00;;;;;;4945473;29;20192;-75
2022/08/12 13:10:24;;;;;;;;;;;40.00;37.40;;;;;;4944297;29;19919;-76
2022/08/12 13:12:50;;;;;;;;;;;39.60;37.80;;;;;;4926672;29;19915;-77
2022/08/12 13:15:16;;;;;;;;;;;39.10;38.20;;;;;;4927392;29;19907;-74
2022/08/12 13:17:48;;;;;;;;;;;41.00;37.50;;;;;;4927217;29;19918;-76
2022/08/12 13:20:18;;;;;;;;;;;42.50;35.90;;;;;;4941249;29;19950;-75
2022/08/12 13:22:44;;;;;;;;;;;42.80;35.40;;;;;;4946245;29;19918;-76
2022/08/12 13:25:11;;;;;;;;;;;42.10;35.60;;;;;;4945083;29;20169;-75
2022/08/12 13:27:44;;;;;;;;;;;40.70;36.10;;;;;;4944766;29;19911;-75
2022/08/12 13:30:11;;;;;;;;;;;40.20;36.70;;;;;;4945187;29;19918;-77
2022/08/12 13:32:49;;;;;;;;;;;38.80;37.20;;;;;;4945942;29;19910;-75
2022/08/12 13:35:15;;;;;;;;;;;36.70;38.60;;;;;;4945687;29;19934;-76
2022/08/12 13:37:42;;;;;;;;;;;35.00;39.70;;;;;;4944410;29;19911;-75
2022/08/12 13:40:09;;;;;;;;;;;34.10;40.50;;;;;;4943334;29;19965;-75
2022/08/12 13:42:38;;;;;;;;;;;33.50;41.10;;;;;;4945027;29;19990;-76
2022/08/12 13:45:05;;;;;;;;;;;35.10;40.70;;;;;;4945384;29;19917;-76
2022/08/12 13:47:51;;;;;;;;;;;36.20;39.60;;;;;;4945720;29;19911;-75
2022/08/12 13:50:17;;;;;;;;;;;35.90;39.60;;;;;;4945746;29;19941;-76
2022/08/12 13:52:42;;;;;;;;;;;35.00;40.10;;;;;;4945310;29;19959;-76
2022/08/12 13:55:08;;;;;;;;;;;34.20;40.70;;;;;;4944777;29;19978;-74
2022/08/12 13:57:42;;;;;;;;;;;35.50;40.20;;;;;;4945621;29;19973;-75
2022/08/12 14:00:10;;;;;;;;;;;36.40;39.40;;;;;;4944890;29;20203;-76
2022/08/12 14:02:37;;;;;;;;;;;37.50;38.80;;;;;;4955456;29;20196;-76
2022/08/12 14:05:08;;;;;;;;;;;39.80;37.60;;;;;;4964142;29;19965;-77
2022/08/12 14:07:53;;;;;;;;;;;42.20;36.60;;;;;;4947585;29;19910;-77
2022/08/12 14:10:38;;;;;;;;;;;44.00;35.70;;;;;;4964873;29;19914;-75
2022/08/12 14:13:25;;;;;;;;;;;45.60;34.60;;;;;;4964173;29;19995;-75
2022/08/12 14:15:52;;;;;;;;;;;45.90;34.10;;;;;;4963614;29;19949;-75
2022/08/12 14:18:22;;;;;;;;;;;45.30;34.20;;;;;;4946882;29;19917;-75
2022/08/12 14:20:51;;;;;;;;;;;46.70;34.20;;;;;;4964147;29;19911;-75
2022/08/12 14:23:18;;;;;;;;;;;47.50;33.80;;;;;;4963883;29;19910;-76
2022/08/12 14:25:45;;;;;;;;;;;47.70;33.70;;;;;;4963623;29;19956;-75
2022/08/12 14:28:17;;;;;;;;;;;45.30;34.00;;;;;;4963385;29;19913;-75
2022/08/12 14:30:52;;;;;;;;;;;44.90;34.60;;;;;;4946994;29;20227;-76
2022/08/12 14:33:21;;;;;;;;;;;45.00;34.20;;;;;;4963800;29;19911;-76
2022/08/12 14:35:48;;;;;;;;;;;45.40;34.10;;;;;;4944265;29;19911;-77
2022/08/12 14:38:19;;;;;;;;;;;44.40;34.30;;;;;;4960171;29;19951;-76
2022/08/12 14:40:45;;;;;;;;;;;44.30;34.40;;;;;;4963163;29;19910;-75
2022/08/12 14:43:13;;;;;;;;;;;45.40;34.30;;;;;;4964225;29;19917;-76
2022/08/12 14:45:39;;;;;;;;;;;46.00;33.90;;;;;;4964558;29;19950;-74
2022/08/12 14:48:05;;;;;;;;;;;46.70;33.60;;;;;;4964354;29;19910;-76
2022/08/12 14:50:31;;;;;;;;;;;46.30;33.30;;;;;;4947728;29;19930;-75
2022/08/12 14:52:56;;;;;;;;;;;46.90;33.70;;;;;;4946885;29;20116;-75
2022/08/12 14:55:22;;;;;;;;;;;47.90;33.50;;;;;;4964710;28;19910;-76
2022/08/12 14:57:54;;;;;;;;;;;48.30;32.50;;;;;;4965102;29;19930;-79
2022/08/12 15:03:08;;;;;;;;;;;48.50;32.70;;;;;;4964383;29;19977;-74
2022/08/12 15:05:37;;;;;;;;;;;47.60;32.50;;;;;;4947724;29;19974;-76
2022/08/12 15:08:09;;;;;;;;;;;44.60;33.50;;;;;;4947159;29;19965;-75
2022/08/12 15:10:35;;;;;;;;;;;41.90;34.70;;;;;;4947518;29;19914;-76
2022/08/12 15:13:05;;;;;;;;;;;39.60;36.20;;;;;;4963801;29;20021;-77
2022/08/12 15:15:31;;;;;;;;;;;38.00;37.30;;;;;;4947446;29;19918;-75
2022/08/12 15:17:58;;;;;;;;;;;36.50;37.90;;;;;;4947062;29;19945;-76
2022/08/12 15:20:23;;;;;;;;;;;35.30;39.10;;;;;;4947296;29;19915;-74
2022/08/12 15:22:49;;;;;;;;;;;34.70;39.50;;;;;;4964750;29;19957;-76
2022/08/12 15:25:15;;;;;;;;;;;34.10;40.00;;;;;;4964129;29;20204;-76
2022/08/12 15:27:42;;;;;;;;;;;33.50;40.20;;;;;;4964645;29;20144;-75
2022/08/12 15:30:08;;;;;;;;;;;33.10;40.50;;;;;;4964027;29;19988;-77
2022/08/12 15:32:33;;;;;;;;;;;32.70;40.60;;;;;;4947393;29;19910;-75
2022/08/12 15:34:59;;;;;;;;;;;32.50;41.10;;;;;;4963515;29;19918;-75
2022/08/12 15:37:25;;;;;;;;;;;32.60;41.30;;;;;;4964075;29;19906;-76
2022/08/12 15:39:51;;;;;;;;;;;34.30;40.90;;;;;;4964019;29;19985;-77
2022/08/12 15:42:16;;;;;;;;;;;37.40;38.80;;;;;;4963522;29;19907;-74
2022/08/12 15:44:42;;;;;;;;;;;40.10;37.30;;;;;;4964139;29;19911;-75
2022/08/12 15:47:08;;;;;;;;;;;42.50;35.90;;;;;;4963374;29;19910;-75
2022/08/12 15:49:35;;;;;;;;;;;44.30;34.90;;;;;;4963861;29;20001;-75
2022/08/12 15:52:00;;;;;;;;;;;44.80;34.00;;;;;;4963814;29;20147;-75
2022/08/12 15:54:26;;;;;;;;;;;45.80;33.60;;;;;;4963931;29;19906;-75
2022/08/12 15:56:53;;;;;;;;;;;45.00;33.30;;;;;;4964190;29;19956;-76
2022/08/12 15:59:19;;;;;;;;;;;44.00;33.70;;;;;;4963850;29;19916;-74
2022/08/12 16:01:46;;;;;;;;;;;41.80;34.60;;;;;;4946700;29;20167;-76
2022/08/12 16:04:12;;;;;;;;;;;40.10;35.40;;;;;;4963359;29;20214;-76
2022/08/12 16:06:38;;;;;;;;;;;38.50;36.50;;;;;;4948582;29;19946;-77
2022/08/12 16:09:04;;;;;;;;;;;36.60;37.90;;;;;;4967300;29;19918;-76
2022/08/12 16:11:39;;;;;;;;;;;35.30;38.70;;;;;;4967970;29;19949;-75
2022/08/12 16:14:07;;;;;;;;;;;34.40;39.50;;;;;;4967706;29;20016;-76
2022/08/12 16:16:34;;;;;;;;;;;33.70;39.90;;;;;;4950717;29;19981;-73
2022/08/12 16:18:59;;;;;;;;;;;33.30;40.10;;;;;;4949696;29;20138;-73
2022/08/12 16:21:25;;;;;;;;;;;32.90;41.10;;;;;;4967586;29;19910;-74
2022/08/12 16:23:51;;;;;;;;;;;32.40;40.90;;;;;;4967277;29;19910;-74
2022/08/12 16:26:17;;;;;;;;;;;31.90;41.40;;;;;;4950136;29;19906;-77
2022/08/12 16:28:44;;;;;;;;;;;31.40;41.90;;;;;;4950363;29;19952;-77
2022/08/12 16:31:13;;;;;;;;;;;31.10;42.50;;;;;;4966977;29;19914;-75
2022/08/12 16:33:41;;;;;;;;;;;31.10;42.60;;;;;;4967089;29;19993;-75
2022/08/12 16:36:09;;;;;;;;;;;30.80;42.60;;;;;;4966679;29;19910;-74
2022/08/12 16:38:34;;;;;;;;;;;30.70;42.80;;;;;;4952783;29;19911;-74
2022/08/12 16:41:00;;;;;;;;;;;30.70;42.80;;;;;;4948463;29;19921;-73
2022/08/12 16:43:30;;;;;;;;;;;31.80;42.70;;;;;;4966018;29;19911;-75
2022/08/12 16:46:00;;;;;;;;;;;34.20;40.80;;;;;;4965853;29;19916;-74
2022/08/12 16:48:27;;;;;;;;;;;36.20;38.90;;;;;;4933413;29;19910;-75
2022/08/12 16:51:00;;;;;;;;;;;37.90;37.70;;;;;;4966557;29;19981;-76
2022/08/12 16:53:27;;;;;;;;;;;38.90;36.80;;;;;;4966307;29;19910;-74
2022/08/12 16:55:53;;;;;;;;;;;40.10;36.40;;;;;;4949184;29;20104;-75
2022/08/12 16:58:20;;;;;;;;;;;40.60;36.10;;;;;;4980469;28;19917;-77
2022/08/12 17:00:47;;;;;;;;;;;40.00;36.00;;;;;;4951069;29;20189;-75
2022/08/12 17:03:13;;;;;;;;;;;38.40;36.60;;;;;;4947168;29;19926;-76
2022/08/12 17:05:40;;;;;;;;;;;36.70;37.80;;;;;;4930793;29;19918;-75
2022/08/12 17:08:06;;;;;;;;;;;35.30;38.90;;;;;;4963634;29;20181;-77
2022/08/12 17:10:32;;;;;;;;;;;34.30;39.50;;;;;;4967050;29;19911;-76
2022/08/12 17:12:58;;;;;;;;;;;33.60;40.30;;;;;;4966666;29;20132;-74
2022/08/12 17:15:24;;;;;;;;;;;32.80;40.60;;;;;;4966720;29;19910;-76
2022/08/12 17:17:49;;;;;;;;;;;32.20;41.30;;;;;;4949322;29;19965;-76
2022/08/12 17:20:15;;;;;;;;;;;31.80;41.70;;;;;;4948624;29;19918;-75
2022/08/12 17:22:41;;;;;;;;;;;31.20;41.80;;;;;;4966848;29;19911;-76
2022/08/12 17:25:10;;;;;;;;;;;30.90;42.50;;;;;;4965688;29;19982;-76
2022/08/12 17:27:43;;;;;;;;;;;30.60;42.60;;;;;;4949284;29;19934;-75
2022/08/12 17:30:11;;;;;;;;;;;30.50;42.80;;;;;;4966120;29;19918;-75
2022/08/12 17:32:38;;;;;;;;;;;30.30;42.90;;;;;;4966644;29;19906;-74
2022/08/12 17:37:50;;;;;;;;;;;29.70;42.70;;;;;;4966134;29;19981;-74
2022/08/12 17:40:16;;;;;;;;;;;29.70;43.00;;;;;;4965444;29;20154;-76
2022/08/12 17:42:44;;;;;;;;;;;29.60;42.60;;;;;;4948952;29;19911;-74
2022/08/12 17:45:10;;;;;;;;;;;29.50;42.70;;;;;;4948299;29;19934;-75
2022/08/12 17:47:36;;;;;;;;;;;29.40;42.80;;;;;;4966252;29;20189;-75
2022/08/12 17:50:07;;;;;;;;;;;29.40;42.80;;;;;;4965357;29;19985;-75
2022/08/12 17:52:37;;;;;;;;;;;29.30;42.60;;;;;;4966321;29;19910;-76
2022/08/12 17:55:03;;;;;;;;;;;29.20;42.80;;;;;;4965542;29;19911;-74
2022/08/12 17:57:29;;;;;;;;;;;29.10;42.90;;;;;;4966033;29;19906;-73
2022/08/12 17:59:56;;;;;;;;;;;29.00;42.60;;;;;;4965979;29;19981;-75
2022/08/12 18:02:24;;;;;;;;;;;28.90;43.00;;;;;;4964897;29;20104;-75
2022/08/12 18:04:50;;;;;;;;;;;28.70;43.10;;;;;;4966130;29;19989;-74
2022/08/12 18:07:16;;;;;;;;;;;28.60;43.30;;;;;;4948685;29;19997;-75
2022/08/12 18:09:43;;;;;;;;;;;28.40;43.60;;;;;;4966109;29;20180;-75
2022/08/12 18:14:55;;;;;;;;;;;28.10;44.00;;;;;;4965602;29;19953;-75
2022/08/12 18:17:24;;;;;;;;;;;27.90;44.40;;;;;;4965260;29;19957;-75
2022/08/12 18:19:51;;;;;;;;;;;27.70;44.70;;;;;;4948461;29;19933;-74
2022/08/12 18:22:17;;;;;;;;;;;27.60;44.70;;;;;;4964699;29;19988;-75
2022/08/12 18:24:43;;;;;;;;;;;27.40;45.00;;;;;;4965832;29;19918;-76
2022/08/12 18:27:09;;;;;;;;;;;27.30;45.30;;;;;;4964999;29;19907;-77
2022/08/12 18:29:35;;;;;;;;;;;27.20;45.60;;;;;;4965002;28;19911;-77
2022/08/12 18:32:01;;;;;;;;;;;27.10;45.80;;;;;;4965637;29;19925;-75
2022/08/12 18:34:27;;;;;;;;;;;26.90;45.80;;;;;;4965274;29;19910;-75
2022/08/12 18:36:53;;;;;;;;;;;26.70;46.10;;;;;;4965612;29;19957;-75
2022/08/12 18:39:19;;;;;;;;;;;26.60;46.40;;;;;;4965075;29;20228;-76
2022/08/12 18:41:45;;;;;;;;;;;26.50;46.60;;;;;;4966649;29;20069;-77
2022/08/12 18:44:11;;;;;;;;;;;26.30;46.80;;;;;;4964713;29;19985;-75
2022/08/12 18:46:46;;;;;;;;;;;26.20;47.00;;;;;;4965091;29;19917;-75
2022/08/12 18:49:16;;;;;;;;;;;26.00;47.30;;;;;;4964380;29;19917;-74
2022/08/12 18:51:51;;;;;;;;;;;25.80;47.50;;;;;;4965173;29;19917;-75
2022/08/12 18:54:20;;;;;;;;;;;25.70;47.80;;;;;;4964519;29;19917;-75
2022/08/12 18:56:49;;;;;;;;;;;25.50;48.10;;;;;;4964807;29;19910;-76
2022/08/12 18:59:21;;;;;;;;;;;25.40;48.30;;;;;;4964257;29;20105;-76
2022/08/12 19:01:52;;;;;;;;;;;25.30;48.50;;;;;;4947132;29;19926;-74
2022/08/12 19:04:18;;;;;;;;;;;25.10;48.60;;;;;;4964245;29;19911;-75
2022/08/12 19:06:44;;;;;;;;;;;25.10;48.70;;;;;;4964406;29;19910;-75
2022/08/12 19:09:13;;;;;;;;;;;25.00;49.00;;;;;;4963845;29;19911;-75
2022/08/12 19:14:24;;;;;;;;;;;24.80;49.40;;;;;;4964148;29;19910;-76
2022/08/12 19:16:51;;;;;;;;;;;24.70;49.60;;;;;;4964372;29;20005;-75
2022/08/12 19:19:17;;;;;;;;;;;24.60;49.80;;;;;;4963700;29;19942;-76
2022/08/12 19:21:46;;;;;;;;;;;24.60;50.00;;;;;;4964280;29;19918;-75
2022/08/12 19:26:57;;;;;;;;;;;24.60;49.60;;;;;;4964474;29;19910;-77
2022/08/12 19:29:23;;;;;;;;;;;24.70;49.40;;;;;;4964028;29;19933;-76
2022/08/12 19:31:50;;;;;;;;;;;24.70;49.60;;;;;;4950460;29;19911;-73
2022/08/12 19:34:18;;;;;;;;;;;24.80;50.30;;;;;;4966724;29;19938;-77
2022/08/12 19:36:47;;;;;;;;;;;24.80;50.80;;;;;;4966774;29;20189;-75
2022/08/12 19:39:13;;;;;;;;;;;24.80;51.10;;;;;;4948699;29;19981;-76
2022/08/12 19:41:40;;;;;;;;;;;24.70;51.50;;;;;;4965814;28;19907;-74
2022/08/12 19:44:09;;;;;;;;;;;24.70;51.70;;;;;;4951851;29;20164;-73
2022/08/12 19:46:36;;;;;;;;;;;24.60;52.00;;;;;;4969738;29;19946;-75
2022/08/12 19:49:03;;;;;;;;;;;24.60;52.30;;;;;;4969113;29;19910;-76
2022/08/12 19:51:32;;;;;;;;;;;24.50;52.50;;;;;;4968192;29;19918;-75
2022/08/12 19:53:58;;;;;;;;;;;24.40;52.90;;;;;;4968029;29;20182;-75
2022/08/12 19:56:26;;;;;;;;;;;24.20;53.10;;;;;;4967371;29;19974;-74